createdAt,value
2022-12-06T00:01:48.503Z,15.85
2022-12-06T00:04:16.933Z,12.65
2022-12-06T00:06:51.141Z,15.70
2022-12-06T00:09:26.745Z,9.52
2022-12-06T00:11:55.323Z,16.20
2022-12-06T00:14:23.299Z,17.38
2022-12-06T00:16:57.987Z,16.52
2022-12-06T00:19:26.220Z,16.85
2022-12-06T00:21:56.461Z,15.45
2022-12-06T00:24:24.474Z,19.33
2022-12-06T00:26:53.556Z,18.50
2022-12-06T00:29:23.137Z,14.13
2022-12-06T00:31:51.212Z,21.23
2022-12-06T00:34:19.179Z,15.38
2022-12-06T00:36:47.964Z,17.92
2022-12-06T00:39:17.115Z,13.25
2022-12-06T00:41:45.168Z,11.52
2022-12-06T00:44:13.416Z,18.67
2022-12-06T00:46:41.556Z,11.80
2022-12-06T00:49:09.915Z,16.77
2022-12-06T00:51:38.236Z,20.67
2022-12-06T00:54:06.502Z,18.65
2022-12-06T00:56:35.705Z,11.85
2022-12-06T00:59:04.192Z,17.02
2022-12-06T01:01:33.715Z,12.77
2022-12-06T01:04:04.667Z,13.27
2022-12-06T01:06:34.031Z,16.45
2022-12-06T01:09:04.780Z,17.90
2022-12-06T01:11:33.826Z,15.75
2022-12-06T01:14:02.565Z,13.48
2022-12-06T01:16:31.301Z,18.05
2022-12-06T01:19:01.188Z,19.65
2022-12-06T01:21:29.303Z,19.70
2022-12-06T01:24:00.424Z,15.68
2022-12-06T01:26:30.589Z,13.77
2022-12-06T01:28:59.579Z,17.38
2022-12-06T01:31:33.678Z,13.32
2022-12-06T01:34:06.377Z,13.75
2022-12-06T01:36:34.855Z,13.73
2022-12-06T01:39:06.966Z,17.75
2022-12-06T01:41:35.853Z,11.60
2022-12-06T01:44:04.693Z,14.18
2022-12-06T01:46:43.477Z,15.95
2022-12-06T01:49:21.250Z,23.88
2022-12-06T01:51:58.075Z,17.77
2022-12-06T01:54:26.528Z,17.00
2022-12-06T01:56:54.580Z,21.42
2022-12-06T01:59:22.572Z,17.40
2022-12-06T02:01:50.600Z,21.50
2022-12-06T02:04:18.546Z,14.70
2022-12-06T02:06:46.737Z,20.90
2022-12-06T02:09:14.771Z,22.45
2022-12-06T02:11:43.826Z,17.98
2022-12-06T02:14:14.699Z,14.65
2022-12-06T02:16:55.074Z,16.25
2022-12-06T02:19:37.765Z,24.88
2022-12-06T02:22:08.289Z,22.52
2022-12-06T02:24:36.327Z,20.85
2022-12-06T02:27:16.886Z,13.38
2022-12-06T02:29:59.961Z,14.70
2022-12-06T02:32:58.153Z,18.92
2022-12-06T02:35:31.917Z,22.52
2022-12-06T02:38:14.217Z,23.10
2022-12-06T02:40:54.276Z,18.38
2022-12-06T02:43:23.979Z,21.45
2022-12-06T02:45:54.286Z,27.33
2022-12-06T02:48:22.668Z,23.40
2022-12-06T02:50:57.379Z,20.65
2022-12-06T02:53:26.232Z,17.85
2022-12-06T02:55:54.640Z,17.95
2022-12-06T02:58:23.777Z,19.20
2022-12-06T03:01:00.042Z,16.42
2022-12-06T03:04:00.699Z,17.55
2022-12-06T03:06:39.523Z,12.98
2022-12-06T03:09:32.053Z,15.10
2022-12-06T03:12:24.164Z,20.10
2022-12-06T03:15:05.778Z,25.13
2022-12-06T03:17:42.330Z,22.17
2022-12-06T03:20:15.141Z,27.10
2022-12-06T03:22:46.868Z,20.27
2022-12-06T03:25:19.855Z,21.77
2022-12-06T03:27:48.228Z,20.98
2022-12-06T03:30:16.387Z,21.40
2022-12-06T03:32:46.689Z,26.38
2022-12-06T03:35:16.907Z,16.92
2022-12-06T03:37:47.211Z,16.92
2022-12-06T03:40:21.932Z,20.27
2022-12-06T03:42:50.329Z,15.57
2022-12-06T03:45:19.181Z,15.70
2022-12-06T03:47:52.990Z,18.33
2022-12-06T03:50:26.799Z,17.70
2022-12-06T03:52:54.758Z,15.48
2022-12-06T03:55:22.806Z,19.40
2022-12-06T03:57:50.952Z,21.38
2022-12-06T04:00:19.282Z,14.70
2022-12-06T04:02:47.359Z,17.23
2022-12-06T04:05:15.215Z,19.98
2022-12-06T04:07:43.144Z,15.65
2022-12-06T04:10:13.655Z,19.77
2022-12-06T04:13:00.489Z,14.00
2022-12-06T04:15:38.829Z,20.13
2022-12-06T04:18:16.462Z,13.65
2022-12-06T04:21:23.975Z,17.50
2022-12-06T04:23:52.711Z,17.13
2022-12-06T04:26:24.406Z,10.77
2022-12-06T04:29:11.378Z,16.15
2022-12-06T04:31:58.587Z,15.15
2022-12-06T04:34:44.867Z,16.42
2022-12-06T04:37:33.908Z,11.77
2022-12-06T04:40:02.352Z,15.23
2022-12-06T04:42:50.632Z,19.00
2022-12-06T04:45:23.619Z,18.48
2022-12-06T04:47:51.434Z,21.52
2022-12-06T04:50:19.255Z,19.17
2022-12-06T04:52:50.640Z,12.10
2022-12-06T04:55:18.704Z,26.42
2022-12-06T04:57:46.684Z,19.50
2022-12-06T05:00:16.512Z,19.92
2022-12-06T05:02:44.435Z,12.05
2022-12-06T05:05:14.106Z,17.65
2022-12-06T05:07:44.795Z,19.77
2022-12-06T05:10:13.824Z,16.05
2022-12-06T05:12:41.654Z,23.17
2022-12-06T05:15:09.762Z,23.75
2022-12-06T05:17:37.786Z,23.05
2022-12-06T05:20:07.829Z,23.50
2022-12-06T05:22:36.541Z,22.38
2022-12-06T05:25:10.363Z,22.05
2022-12-06T05:27:45.095Z,25.00
2022-12-06T05:30:35.169Z,20.08
2022-12-06T05:33:05.905Z,19.60
2022-12-06T05:35:54.742Z,22.50
2022-12-06T05:38:22.659Z,14.70
2022-12-06T05:40:57.665Z,11.88
2022-12-06T05:43:25.589Z,15.80
2022-12-06T05:45:53.982Z,15.65
2022-12-06T05:48:22.644Z,10.10
2022-12-06T05:50:50.921Z,12.43
2022-12-06T05:53:18.859Z,21.55
2022-12-06T05:55:48.927Z,22.15
2022-12-06T05:58:19.363Z,16.70
2022-12-06T06:00:50.446Z,20.10
2022-12-06T06:03:18.895Z,16.30
2022-12-06T06:05:48.707Z,15.05
2022-12-06T06:08:17.716Z,22.40
2022-12-06T06:10:46.509Z,14.15
2022-12-06T06:13:14.878Z,14.93
2022-12-06T06:15:45.435Z,17.35
2022-12-06T06:18:17.740Z,18.45
2022-12-06T06:20:53.418Z,18.80
2022-12-06T06:23:21.531Z,20.77
2022-12-06T06:25:49.594Z,24.45
2022-12-06T06:28:19.564Z,23.45
2022-12-06T06:30:47.756Z,20.75
2022-12-06T06:33:23.682Z,22.35
2022-12-06T06:35:52.253Z,23.60
2022-12-06T06:38:20.659Z,20.70
2022-12-06T06:40:48.654Z,24.65
2022-12-06T06:43:21.056Z,20.35
2022-12-06T06:45:58.315Z,22.50
2022-12-06T06:48:29.430Z,16.20
2022-12-06T06:51:03.661Z,18.70
2022-12-06T06:53:41.361Z,18.60
2022-12-06T06:56:10.050Z,16.20
2022-12-06T06:58:38.399Z,32.33
2022-12-06T07:01:07.319Z,25.88
2022-12-06T07:03:35.361Z,26.35
2022-12-06T07:06:05.440Z,26.38
2022-12-06T07:08:35.357Z,23.17
2022-12-06T11:11:28.217Z,14.13
2022-12-06T11:14:41.619Z,16.15
2022-12-06T11:17:18.687Z,12.55
2022-12-06T11:19:50.324Z,8.88
2022-12-06T11:22:46.030Z,12.48
2022-12-06T11:25:39.729Z,12.32
2022-12-06T11:28:23.548Z,14.48
2022-12-06T11:30:53.074Z,13.25
2022-12-06T11:33:22.230Z,16.20
2022-12-06T11:35:50.345Z,16.10
2022-12-06T11:38:18.426Z,15.25
2022-12-06T11:40:47.558Z,18.27
2022-12-06T11:43:24.383Z,9.98
2022-12-06T11:45:52.738Z,11.00
2022-12-06T11:48:23.390Z,11.50
2022-12-06T11:50:52.249Z,11.02
2022-12-06T11:53:27.890Z,16.15
2022-12-06T11:55:59.428Z,14.05
2022-12-06T11:58:41.992Z,12.48
2022-12-06T12:01:12.137Z,13.73
2022-12-06T12:03:42.157Z,13.93
2022-12-06T12:06:23.977Z,37.05
2022-12-06T12:08:54.432Z,14.63
2022-12-06T12:11:23.861Z,15.60
2022-12-06T12:13:54.721Z,21.70
2022-12-06T12:16:30.916Z,11.15
2022-12-06T12:19:00.753Z,25.08
2022-12-06T12:21:37.111Z,17.23
2022-12-06T12:26:41.388Z,15.13
2022-12-06T12:29:09.316Z,13.40
2022-12-06T12:31:54.596Z,18.75
2022-12-06T12:34:27.277Z,19.17
2022-12-06T12:37:00.866Z,14.30
2022-12-06T12:39:35.130Z,11.52
2022-12-06T12:42:04.127Z,10.25
2022-12-06T12:44:38.701Z,17.58
2022-12-06T12:47:20.126Z,24.13
2022-12-06T12:50:20.355Z,17.67
2022-12-06T12:52:48.430Z,20.25
2022-12-06T12:55:29.081Z,17.63
2022-12-06T12:57:58.852Z,17.70
2022-12-06T13:00:37.634Z,9.23
2022-12-06T13:03:49.423Z,17.42
2022-12-06T13:06:07.521Z,14.02
2022-12-06T13:08:35.481Z,10.75
2022-12-06T13:11:03.477Z,9.95
2022-12-06T13:13:37.477Z,10.20
2022-12-06T13:16:10.523Z,15.52
2022-12-06T13:18:46.522Z,16.25
2022-12-06T13:21:21.266Z,17.73
2022-12-06T13:23:54.443Z,18.35
2022-12-06T13:26:26.876Z,12.65
2022-12-06T13:28:57.773Z,15.65
2022-12-06T13:31:31.353Z,29.23
2022-12-06T13:34:03.640Z,27.58
2022-12-06T13:36:32.836Z,41.40
2022-12-06T13:39:33.196Z,39.88
2022-12-06T13:42:19.891Z,58.47
2022-12-06T13:44:50.798Z,51.97
2022-12-06T13:47:30.845Z,31.38
2022-12-06T13:50:12.701Z,22.48
2022-12-06T13:52:43.991Z,17.83
2022-12-06T13:55:24.177Z,21.58
2022-12-06T13:57:58.361Z,12.20
2022-12-06T14:00:31.965Z,18.23
2022-12-06T14:03:35.577Z,16.00
2022-12-06T14:06:13.913Z,13.40
2022-12-06T14:08:49.803Z,14.27
2022-12-06T14:11:27.766Z,16.33
2022-12-06T14:13:55.556Z,14.70
2022-12-06T14:16:41.842Z,15.35
2022-12-06T14:19:20.522Z,12.85
2022-12-06T14:22:05.728Z,10.60
2022-12-06T14:24:38.414Z,18.25
2022-12-06T14:27:13.862Z,18.45
2022-12-06T14:29:42.874Z,14.43
2022-12-06T14:32:10.783Z,12.35
2022-12-06T14:34:38.671Z,23.10
2022-12-06T14:37:19.948Z,24.63
2022-12-06T14:39:52.664Z,15.25
2022-12-06T14:42:39.348Z,15.75
2022-12-06T14:45:19.519Z,20.98
2022-12-06T14:47:47.401Z,15.80
2022-12-06T14:50:29.795Z,17.80
2022-12-06T14:53:07.426Z,15.88
2022-12-06T14:55:57.239Z,21.15
2022-12-06T14:58:40.620Z,14.85
2022-12-06T15:01:18.721Z,14.27
2022-12-06T15:04:02.190Z,15.70
2022-12-06T15:06:32.217Z,10.95
2022-12-06T15:09:00.103Z,15.07
2022-12-06T15:11:49.044Z,18.33
2022-12-06T15:14:27.769Z,28.10
2022-12-06T15:17:18.191Z,15.88
2022-12-06T15:19:51.205Z,16.38
2022-12-06T15:22:29.245Z,16.63
2022-12-06T15:24:57.908Z,15.57
2022-12-06T15:27:28.953Z,18.65
2022-12-06T15:29:57.205Z,16.90
2022-12-06T15:32:26.516Z,13.30
2022-12-06T15:34:54.515Z,10.73
2022-12-06T15:37:39.779Z,10.82
2022-12-06T15:40:14.922Z,20.77
2022-12-06T15:42:43.629Z,9.75
2022-12-06T15:45:20.779Z,15.80
2022-12-06T15:47:51.788Z,18.38
2022-12-06T15:50:20.610Z,13.52
2022-12-06T15:52:48.619Z,16.50
2022-12-06T15:55:18.555Z,22.38
2022-12-06T15:57:46.473Z,9.15
2022-12-06T16:00:14.680Z,17.48
2022-12-06T16:02:42.664Z,12.88
2022-12-06T16:05:16.398Z,13.35
2022-12-06T16:07:44.602Z,12.07
2022-12-06T16:10:15.497Z,18.33
2022-12-06T16:13:04.167Z,11.63
2022-12-06T16:17:59.719Z,10.75
2022-12-06T16:20:31.300Z,11.38
2022-12-06T16:24:12.649Z,12.80
2022-12-06T16:26:39.482Z,10.45
2022-12-06T16:29:07.910Z,19.27
2022-12-06T16:31:38.721Z,18.33
2022-12-06T16:34:12.087Z,15.93
2022-12-06T16:36:57.423Z,10.00
2022-12-06T16:39:25.722Z,37.78
2022-12-06T20:23:06.170Z,13.85
2022-12-06T20:25:39.377Z,16.98
2022-12-06T20:28:13.516Z,16.85
2022-12-06T20:30:41.848Z,16.58
2022-12-06T20:33:09.737Z,10.65
2022-12-06T20:35:39.401Z,15.82
2022-12-06T20:38:07.317Z,14.60
2022-12-06T20:40:36.997Z,12.63
2022-12-06T20:43:04.913Z,11.95
2022-12-06T20:45:32.967Z,11.68
2022-12-06T20:48:00.985Z,11.55
2022-12-06T20:50:29.056Z,10.57
2022-12-06T20:52:56.910Z,14.13
2022-12-06T20:55:25.062Z,12.65
2022-12-06T20:57:53.050Z,17.60
2022-12-06T21:00:21.700Z,14.60
2022-12-06T21:02:50.207Z,11.55
2022-12-06T21:05:19.092Z,12.18
2022-12-06T21:07:47.467Z,15.98
2022-12-06T21:10:16.608Z,10.25
2022-12-06T21:12:45.302Z,19.02
2022-12-06T21:15:13.966Z,18.27
2022-12-06T21:17:41.871Z,19.60
2022-12-06T21:20:10.622Z,14.15
2022-12-06T21:22:40.272Z,19.83
2022-12-06T21:25:08.665Z,21.20
2022-12-06T21:27:40.501Z,22.65
2022-12-06T21:30:10.228Z,21.27
2022-12-06T21:32:38.359Z,21.55
2022-12-06T21:35:08.107Z,22.80
2022-12-06T21:37:44.284Z,18.15
2022-12-06T21:40:14.812Z,22.13
2022-12-06T21:42:42.752Z,19.63
2022-12-06T21:45:11.014Z,21.25
2022-12-06T21:47:40.210Z,21.52
2022-12-06T21:50:10.816Z,19.92
2022-12-06T21:52:40.101Z,14.63
2022-12-06T21:55:08.802Z,21.13
2022-12-06T21:57:38.249Z,15.25
2022-12-06T22:00:07.988Z,15.10
2022-12-06T22:02:40.961Z,20.15
2022-12-06T22:05:11.537Z,22.52
2022-12-06T22:07:39.768Z,22.38
2022-12-06T22:10:08.896Z,27.88
2022-12-06T22:12:37.375Z,24.08
2022-12-06T22:15:06.996Z,16.60
2022-12-06T22:17:34.979Z,21.85
2022-12-06T22:20:03.483Z,27.08
2022-12-06T22:22:31.631Z,17.00
2022-12-06T22:24:59.734Z,22.13
2022-12-06T22:27:27.779Z,20.13
2022-12-06T22:29:57.420Z,33.33
2022-12-06T22:32:25.357Z,26.33
2022-12-06T22:34:53.219Z,30.10
2022-12-06T22:37:26.855Z,36.45
2022-12-06T22:39:56.632Z,33.08
2022-12-06T22:42:24.587Z,34.00
2022-12-06T22:44:52.700Z,48.42
2022-12-06T22:47:20.954Z,34.88
2022-12-06T22:49:49.351Z,46.28
2022-12-06T22:52:18.918Z,51.65
2022-12-06T22:54:48.776Z,87.15
2022-12-06T22:57:17.470Z,64.57
2022-12-06T22:59:46.759Z,52.47
2022-12-06T23:02:15.481Z,53.78
2022-12-06T23:04:43.948Z,46.35
2022-12-06T23:07:14.408Z,43.33
2022-12-06T23:09:45.533Z,36.22
2022-12-06T23:12:13.690Z,38.90
2022-12-06T23:14:42.557Z,27.58
2022-12-06T23:17:15.822Z,28.80
2022-12-06T23:22:15.965Z,31.45
2022-12-06T23:24:44.547Z,22.55
2022-12-06T23:27:15.975Z,20.42
2022-12-06T23:29:43.934Z,31.63
2022-12-06T23:32:13.011Z,28.60
2022-12-06T23:34:41.437Z,17.60
2022-12-06T23:37:11.279Z,16.30
2022-12-06T23:39:39.202Z,21.65
2022-12-06T23:42:07.619Z,32.55
2022-12-06T23:44:37.266Z,20.00
2022-12-06T23:47:05.479Z,17.38
2022-12-06T23:49:33.763Z,19.52
2022-12-06T23:52:02.067Z,28.25
2022-12-06T23:54:30.270Z,23.10
2022-12-06T23:57:04.556Z,23.45
2022-12-06T23:59:32.536Z,23.42
